sensor_id;sensor_type;location;lat;lon;timestamp;P1;durP1;ratioP1;P2;durP2;ratioP2
45540;SDS011;31265;49.680;8.608;2022-12-07T00:02:30;6.55;;;2.75;;
45540;SDS011;31265;49.680;8.608;2022-12-07T00:04:58;6.13;;;3.05;;
45540;SDS011;31265;49.680;8.608;2022-12-07T00:07:27;5.53;;;3.33;;
45540;SDS011;31265;49.680;8.608;2022-12-07T00:09:57;7.78;;;3.22;;
45540;SDS011;31265;49.680;8.608;2022-12-07T00:12:26;8.30;;;2.47;;
45540;SDS011;31265;49.680;8.608;2022-12-07T00:14:55;7.88;;;4.03;;
45540;SDS011;31265;49.680;8.608;2022-12-07T00:17:23;9.90;;;3.67;;
45540;SDS011;31265;49.680;8.608;2022-12-07T00:19:52;5.30;;;2.47;;
45540;SDS011;31265;49.680;8.608;2022-12-07T00:22:20;5.80;;;2.00;;
45540;SDS011;31265;49.680;8.608;2022-12-07T00:24:49;7.97;;;3.58;;
45540;SDS011;31265;49.680;8.608;2022-12-07T00:27:18;7.78;;;3.22;;
45540;SDS011;31265;49.680;8.608;2022-12-07T00:29:47;7.47;;;3.40;;
45540;SDS011;31265;49.680;8.608;2022-12-07T00:32:16;7.28;;;3.33;;
45540;SDS011;31265;49.680;8.608;2022-12-07T00:34:46;8.10;;;2.80;;
45540;SDS011;31265;49.680;8.608;2022-12-07T00:37:14;17.48;;;3.47;;
45540;SDS011;31265;49.680;8.608;2022-12-07T00:39:42;6.38;;;3.30;;
45540;SDS011;31265;49.680;8.608;2022-12-07T00:42:11;6.28;;;2.95;;
45540;SDS011;31265;49.680;8.608;2022-12-07T00:44:40;4.53;;;2.13;;
45540;SDS011;31265;49.680;8.608;2022-12-07T00:47:09;10.65;;;3.30;;
45540;SDS011;31265;49.680;8.608;2022-12-07T00:49:37;11.65;;;3.88;;
45540;SDS011;31265;49.680;8.608;2022-12-07T00:52:06;6.53;;;2.35;;
45540;SDS011;31265;49.680;8.608;2022-12-07T00:54:36;8.20;;;3.08;;
45540;SDS011;31265;49.680;8.608;2022-12-07T00:57:07;8.00;;;2.92;;
45540;SDS011;31265;49.680;8.608;2022-12-07T00:59:35;5.53;;;2.67;;
45540;SDS011;31265;49.680;8.608;2022-12-07T01:02:05;8.20;;;3.58;;
45540;SDS011;31265;49.680;8.608;2022-12-07T01:04:34;5.78;;;2.47;;
45540;SDS011;31265;49.680;8.608;2022-12-07T01:07:03;7.20;;;2.92;;
45540;SDS011;31265;49.680;8.608;2022-12-07T01:09:31;8.40;;;2.35;;
45540;SDS011;31265;49.680;8.608;2022-12-07T01:12:00;9.20;;;2.40;;
45540;SDS011;31265;49.680;8.608;2022-12-07T01:17:01;5.82;;;2.28;;
45540;SDS011;31265;49.680;8.608;2022-12-07T01:19:34;5.32;;;2.55;;
45540;SDS011;31265;49.680;8.608;2022-12-07T01:22:02;5.10;;;2.35;;
45540;SDS011;31265;49.680;8.608;2022-12-07T01:24:31;6.15;;;3.03;;
45540;SDS011;31265;49.680;8.608;2022-12-07T01:27:00;7.05;;;2.92;;
45540;SDS011;31265;49.680;8.608;2022-12-07T01:29:29;5.38;;;2.78;;
45540;SDS011;31265;49.680;8.608;2022-12-07T01:31:58;7.47;;;3.60;;
45540;SDS011;31265;49.680;8.608;2022-12-07T01:34:27;6.07;;;2.80;;
45540;SDS011;31265;49.680;8.608;2022-12-07T01:36:59;6.95;;;3.03;;
45540;SDS011;31265;49.680;8.608;2022-12-07T01:39:30;7.43;;;2.42;;
45540;SDS011;31265;49.680;8.608;2022-12-07T01:41:58;8.77;;;3.10;;
45540;SDS011;31265;49.680;8.608;2022-12-07T01:44:28;6.15;;;2.88;;
45540;SDS011;31265;49.680;8.608;2022-12-07T01:46:59;6.30;;;2.97;;
45540;SDS011;31265;49.680;8.608;2022-12-07T01:49:33;7.65;;;3.40;;
45540;SDS011;31265;49.680;8.608;2022-12-07T01:52:08;11.70;;;2.88;;
45540;SDS011;31265;49.680;8.608;2022-12-07T01:54:41;10.23;;;2.78;;
45540;SDS011;31265;49.680;8.608;2022-12-07T01:57:13;9.38;;;3.00;;
45540;SDS011;31265;49.680;8.608;2022-12-07T01:59:45;9.77;;;3.08;;
45540;SDS011;31265;49.680;8.608;2022-12-07T02:02:17;6.97;;;2.80;;
45540;SDS011;31265;49.680;8.608;2022-12-07T02:04:48;5.97;;;2.72;;
45540;SDS011;31265;49.680;8.608;2022-12-07T02:07:19;7.57;;;3.10;;
45540;SDS011;31265;49.680;8.608;2022-12-07T02:09:50;6.97;;;2.70;;
45540;SDS011;31265;49.680;8.608;2022-12-07T02:14:47;5.43;;;2.47;;
45540;SDS011;31265;49.680;8.608;2022-12-07T02:17:18;6.55;;;2.95;;
45540;SDS011;31265;49.680;8.608;2022-12-07T02:20:03;6.78;;;2.95;;
45540;SDS011;31265;49.680;8.608;2022-12-07T02:26:10;4.97;;;2.35;;
45540;SDS011;31265;49.680;8.608;2022-12-07T02:29:08;6.68;;;2.75;;
45540;SDS011;31265;49.680;8.608;2022-12-07T02:31:43;6.13;;;2.25;;
45540;SDS011;31265;49.680;8.608;2022-12-07T02:34:18;6.97;;;3.78;;
45540;SDS011;31265;49.680;8.608;2022-12-07T02:36:51;6.03;;;3.40;;
45540;SDS011;31265;49.680;8.608;2022-12-07T02:39:25;6.30;;;2.67;;
45540;SDS011;31265;49.680;8.608;2022-12-07T02:42:01;7.07;;;3.38;;
45540;SDS011;31265;49.680;8.608;2022-12-07T02:44:37;8.05;;;2.95;;
45540;SDS011;31265;49.680;8.608;2022-12-07T02:47:07;5.40;;;2.67;;
45540;SDS011;31265;49.680;8.608;2022-12-07T02:49:41;5.30;;;2.17;;
45540;SDS011;31265;49.680;8.608;2022-12-07T02:52:10;7.35;;;3.15;;
45540;SDS011;31265;49.680;8.608;2022-12-07T02:54:39;8.63;;;3.15;;
45540;SDS011;31265;49.680;8.608;2022-12-07T02:57:13;7.10;;;2.70;;
45540;SDS011;31265;49.680;8.608;2022-12-07T02:59:57;9.63;;;3.65;;
45540;SDS011;31265;49.680;8.608;2022-12-07T03:02:35;11.88;;;3.20;;
45540;SDS011;31265;49.680;8.608;2022-12-07T03:05:13;5.88;;;2.53;;
45540;SDS011;31265;49.680;8.608;2022-12-07T03:07:51;8.48;;;3.58;;
45540;SDS011;31265;49.680;8.608;2022-12-07T03:10:27;7.68;;;3.42;;
45540;SDS011;31265;49.680;8.608;2022-12-07T03:13:07;5.20;;;2.70;;
45540;SDS011;31265;49.680;8.608;2022-12-07T03:15:42;6.72;;;2.90;;
45540;SDS011;31265;49.680;8.608;2022-12-07T03:18:18;3.85;;;1.90;;
45540;SDS011;31265;49.680;8.608;2022-12-07T03:20:51;6.63;;;2.55;;
45540;SDS011;31265;49.680;8.608;2022-12-07T03:23:23;7.38;;;3.47;;
45540;SDS011;31265;49.680;8.608;2022-12-07T03:25:54;7.53;;;3.60;;
45540;SDS011;31265;49.680;8.608;2022-12-07T03:28:27;6.72;;;2.53;;
45540;SDS011;31265;49.680;8.608;2022-12-07T03:31:01;8.32;;;2.72;;
45540;SDS011;31265;49.680;8.608;2022-12-07T03:33:36;8.60;;;3.47;;
45540;SDS011;31265;49.680;8.608;2022-12-07T03:36:11;8.45;;;3.50;;
45540;SDS011;31265;49.680;8.608;2022-12-07T03:38:48;7.25;;;2.72;;
45540;SDS011;31265;49.680;8.608;2022-12-07T03:41:22;10.27;;;3.88;;
45540;SDS011;31265;49.680;8.608;2022-12-07T03:43:54;16.50;;;3.25;;
45540;SDS011;31265;49.680;8.608;2022-12-07T03:46:27;5.13;;;2.63;;
45540;SDS011;31265;49.680;8.608;2022-12-07T03:49:05;7.43;;;3.03;;
45540;SDS011;31265;49.680;8.608;2022-12-07T03:51:39;7.18;;;3.38;;
45540;SDS011;31265;49.680;8.608;2022-12-07T03:54:13;7.40;;;2.58;;
45540;SDS011;31265;49.680;8.608;2022-12-07T03:56:47;12.95;;;3.65;;
45540;SDS011;31265;49.680;8.608;2022-12-07T04:01:52;6.80;;;3.40;;
45540;SDS011;31265;49.680;8.608;2022-12-07T04:04:23;6.20;;;3.05;;
45540;SDS011;31265;49.680;8.608;2022-12-07T04:06:53;6.97;;;3.40;;
45540;SDS011;31265;49.680;8.608;2022-12-07T04:09:21;5.93;;;2.88;;
45540;SDS011;31265;49.680;8.608;2022-12-07T04:11:49;7.68;;;3.20;;
45540;SDS011;31265;49.680;8.608;2022-12-07T04:14:17;4.45;;;2.55;;
45540;SDS011;31265;49.680;8.608;2022-12-07T04:16:46;7.10;;;3.05;;
45540;SDS011;31265;49.680;8.608;2022-12-07T04:19:19;8.87;;;3.30;;
45540;SDS011;31265;49.680;8.608;2022-12-07T04:21:49;6.32;;;2.95;;
45540;SDS011;31265;49.680;8.608;2022-12-07T04:24:18;7.55;;;3.33;;
45540;SDS011;31265;49.680;8.608;2022-12-07T04:26:49;7.65;;;3.03;;
45540;SDS011;31265;49.680;8.608;2022-12-07T04:29:18;5.72;;;2.85;;
45540;SDS011;31265;49.680;8.608;2022-12-07T04:31:47;9.02;;;3.95;;
45540;SDS011;31265;49.680;8.608;2022-12-07T04:34:17;8.27;;;3.55;;
45540;SDS011;31265;49.680;8.608;2022-12-07T04:36:47;6.63;;;3.38;;
45540;SDS011;31265;49.680;8.608;2022-12-07T04:39:17;6.78;;;3.35;;
45540;SDS011;31265;49.680;8.608;2022-12-07T04:41:48;7.35;;;3.70;;
45540;SDS011;31265;49.680;8.608;2022-12-07T04:44:17;6.15;;;3.17;;
45540;SDS011;31265;49.680;8.608;2022-12-07T04:46:46;8.98;;;3.42;;
45540;SDS011;31265;49.680;8.608;2022-12-07T04:49:17;9.20;;;3.78;;
45540;SDS011;31265;49.680;8.608;2022-12-07T04:51:46;7.22;;;3.42;;
45540;SDS011;31265;49.680;8.608;2022-12-07T04:54:15;7.63;;;3.30;;
45540;SDS011;31265;49.680;8.608;2022-12-07T04:56:45;6.18;;;3.10;;
45540;SDS011;31265;49.680;8.608;2022-12-07T04:59:14;6.45;;;2.83;;
45540;SDS011;31265;49.680;8.608;2022-12-07T05:01:45;9.55;;;3.90;;
45540;SDS011;31265;49.680;8.608;2022-12-07T05:04:14;7.18;;;3.05;;
45540;SDS011;31265;49.680;8.608;2022-12-07T05:06:45;7.55;;;3.10;;
45540;SDS011;31265;49.680;8.608;2022-12-07T05:09:15;7.80;;;3.15;;
45540;SDS011;31265;49.680;8.608;2022-12-07T05:11:43;7.82;;;2.85;;
45540;SDS011;31265;49.680;8.608;2022-12-07T05:14:13;10.70;;;2.85;;
45540;SDS011;31265;49.680;8.608;2022-12-07T05:16:45;9.60;;;3.50;;
45540;SDS011;31265;49.680;8.608;2022-12-07T05:19:17;5.82;;;3.10;;
45540;SDS011;31265;49.680;8.608;2022-12-07T05:21:48;5.80;;;3.35;;
45540;SDS011;31265;49.680;8.608;2022-12-07T05:24:16;10.07;;;3.42;;
45540;SDS011;31265;49.680;8.608;2022-12-07T05:26:45;9.63;;;4.25;;
45540;SDS011;31265;49.680;8.608;2022-12-07T05:29:15;5.82;;;2.63;;
45540;SDS011;31265;49.680;8.608;2022-12-07T05:31:44;6.75;;;2.75;;
45540;SDS011;31265;49.680;8.608;2022-12-07T05:34:13;8.63;;;3.37;;
45540;SDS011;31265;49.680;8.608;2022-12-07T05:36:42;6.07;;;3.03;;
45540;SDS011;31265;49.680;8.608;2022-12-07T05:39:13;8.18;;;4.03;;
45540;SDS011;31265;49.680;8.608;2022-12-07T05:41:42;9.90;;;3.25;;
45540;SDS011;31265;49.680;8.608;2022-12-07T05:44:28;6.43;;;3.63;;
45540;SDS011;31265;49.680;8.608;2022-12-07T05:46:57;10.30;;;5.20;;
45540;SDS011;31265;49.680;8.608;2022-12-07T05:49:25;6.90;;;3.15;;
45540;SDS011;31265;49.680;8.608;2022-12-07T05:51:56;6.95;;;3.30;;
45540;SDS011;31265;49.680;8.608;2022-12-07T05:54:27;8.63;;;3.27;;
45540;SDS011;31265;49.680;8.608;2022-12-07T05:56:55;7.68;;;3.15;;
45540;SDS011;31265;49.680;8.608;2022-12-07T05:59:23;9.90;;;3.83;;
45540;SDS011;31265;49.680;8.608;2022-12-07T06:01:51;10.10;;;3.22;;
45540;SDS011;31265;49.680;8.608;2022-12-07T06:04:22;9.50;;;2.75;;
45540;SDS011;31265;49.680;8.608;2022-12-07T06:06:51;9.60;;;4.07;;
45540;SDS011;31265;49.680;8.608;2022-12-07T06:09:22;8.38;;;2.72;;
45540;SDS011;31265;49.680;8.608;2022-12-07T06:11:53;6.18;;;2.72;;
45540;SDS011;31265;49.680;8.608;2022-12-07T06:14:39;5.75;;;2.65;;
45540;SDS011;31265;49.680;8.608;2022-12-07T06:17:08;5.20;;;2.63;;
45540;SDS011;31265;49.680;8.608;2022-12-07T06:19:37;8.37;;;2.60;;
45540;SDS011;31265;49.680;8.608;2022-12-07T06:22:05;8.02;;;3.40;;
45540;SDS011;31265;49.680;8.608;2022-12-07T06:27:05;10.13;;;3.13;;
45540;SDS011;31265;49.680;8.608;2022-12-07T06:29:34;12.50;;;3.58;;
45540;SDS011;31265;49.680;8.608;2022-12-07T06:32:05;7.35;;;2.80;;
45540;SDS011;31265;49.680;8.608;2022-12-07T06:34:34;5.97;;;2.60;;
45540;SDS011;31265;49.680;8.608;2022-12-07T06:37:03;6.97;;;3.25;;
45540;SDS011;31265;49.680;8.608;2022-12-07T06:39:31;7.43;;;2.40;;
45540;SDS011;31265;49.680;8.608;2022-12-07T06:42:00;7.28;;;3.03;;
45540;SDS011;31265;49.680;8.608;2022-12-07T06:44:30;8.23;;;3.17;;
45540;SDS011;31265;49.680;8.608;2022-12-07T06:47:00;8.35;;;4.05;;
45540;SDS011;31265;49.680;8.608;2022-12-07T06:49:49;8.00;;;3.73;;
45540;SDS011;31265;49.680;8.608;2022-12-07T06:52:18;8.65;;;3.55;;
45540;SDS011;31265;49.680;8.608;2022-12-07T06:54:46;8.25;;;2.97;;
45540;SDS011;31265;49.680;8.608;2022-12-07T06:57:15;8.05;;;3.38;;
45540;SDS011;31265;49.680;8.608;2022-12-07T06:59:47;6.45;;;2.92;;
45540;SDS011;31265;49.680;8.608;2022-12-07T07:02:15;8.85;;;3.85;;
45540;SDS011;31265;49.680;8.608;2022-12-07T07:04:43;12.30;;;2.95;;
45540;SDS011;31265;49.680;8.608;2022-12-07T07:07:11;7.07;;;2.47;;
45540;SDS011;31265;49.680;8.608;2022-12-07T07:09:40;6.47;;;2.88;;
45540;SDS011;31265;49.680;8.608;2022-12-07T07:12:11;7.25;;;2.60;;
45540;SDS011;31265;49.680;8.608;2022-12-07T07:14:39;5.32;;;2.72;;
45540;SDS011;31265;49.680;8.608;2022-12-07T07:17:11;8.82;;;3.08;;
45540;SDS011;31265;49.680;8.608;2022-12-07T07:19:39;6.30;;;3.10;;
45540;SDS011;31265;49.680;8.608;2022-12-07T07:22:07;12.45;;;3.30;;
45540;SDS011;31265;49.680;8.608;2022-12-07T07:24:35;7.32;;;2.75;;
45540;SDS011;31265;49.680;8.608;2022-12-07T07:27:04;8.15;;;2.70;;
45540;SDS011;31265;49.680;8.608;2022-12-07T07:29:34;7.30;;;2.20;;
45540;SDS011;31265;49.680;8.608;2022-12-07T07:34:34;10.55;;;2.63;;
45540;SDS011;31265;49.680;8.608;2022-12-07T07:37:02;6.38;;;3.08;;
45540;SDS011;31265;49.680;8.608;2022-12-07T07:39:31;6.80;;;2.78;;
45540;SDS011;31265;49.680;8.608;2022-12-07T07:41:59;6.63;;;2.85;;
45540;SDS011;31265;49.680;8.608;2022-12-07T07:44:32;7.40;;;3.65;;
45540;SDS011;31265;49.680;8.608;2022-12-07T07:47:06;9.73;;;3.67;;
45540;SDS011;31265;49.680;8.608;2022-12-07T07:49:39;9.88;;;3.17;;
45540;SDS011;31265;49.680;8.608;2022-12-07T07:52:14;6.43;;;3.03;;
45540;SDS011;31265;49.680;8.608;2022-12-07T07:54:42;7.28;;;3.38;;
45540;SDS011;31265;49.680;8.608;2022-12-07T07:57:10;5.57;;;2.42;;
45540;SDS011;31265;49.680;8.608;2022-12-07T07:59:40;7.90;;;3.60;;
45540;SDS011;31265;49.680;8.608;2022-12-07T08:02:10;5.85;;;2.67;;
45540;SDS011;31265;49.680;8.608;2022-12-07T08:04:44;7.13;;;3.03;;
45540;SDS011;31265;49.680;8.608;2022-12-07T08:07:13;6.03;;;3.00;;
45540;SDS011;31265;49.680;8.608;2022-12-07T08:12:10;7.50;;;3.15;;
45540;SDS011;31265;49.680;8.608;2022-12-07T08:14:38;8.25;;;3.40;;
45540;SDS011;31265;49.680;8.608;2022-12-07T08:17:08;9.05;;;4.18;;
45540;SDS011;31265;49.680;8.608;2022-12-07T08:19:36;6.18;;;3.17;;
45540;SDS011;31265;49.680;8.608;2022-12-07T08:22:06;7.30;;;3.20;;
45540;SDS011;31265;49.680;8.608;2022-12-07T08:24:35;9.95;;;3.38;;
45540;SDS011;31265;49.680;8.608;2022-12-07T08:27:05;7.00;;;3.63;;
45540;SDS011;31265;49.680;8.608;2022-12-07T08:29:33;7.80;;;3.53;;
45540;SDS011;31265;49.680;8.608;2022-12-07T08:32:01;8.52;;;4.15;;
45540;SDS011;31265;49.680;8.608;2022-12-07T08:34:35;6.65;;;3.10;;
45540;SDS011;31265;49.680;8.608;2022-12-07T08:37:06;6.57;;;3.47;;
45540;SDS011;31265;49.680;8.608;2022-12-07T08:42:03;7.63;;;2.42;;
45540;SDS011;31265;49.680;8.608;2022-12-07T08:44:32;7.65;;;3.90;;
45540;SDS011;31265;49.680;8.608;2022-12-07T08:47:00;6.68;;;3.65;;
45540;SDS011;31265;49.680;8.608;2022-12-07T08:49:33;8.90;;;4.25;;
45540;SDS011;31265;49.680;8.608;2022-12-07T08:52:08;7.10;;;3.75;;
45540;SDS011;31265;49.680;8.608;2022-12-07T08:54:38;5.90;;;2.70;;
45540;SDS011;31265;49.680;8.608;2022-12-07T08:57:10;9.82;;;4.25;;
45540;SDS011;31265;49.680;8.608;2022-12-07T08:59:39;7.38;;;4.03;;
45540;SDS011;31265;49.680;8.608;2022-12-07T09:02:08;7.85;;;4.00;;
45540;SDS011;31265;49.680;8.608;2022-12-07T09:04:36;7.72;;;3.67;;
45540;SDS011;31265;49.680;8.608;2022-12-07T09:07:06;12.23;;;4.28;;
45540;SDS011;31265;49.680;8.608;2022-12-07T09:09:36;7.40;;;4.10;;
45540;SDS011;31265;49.680;8.608;2022-12-07T09:12:04;11.55;;;5.05;;
45540;SDS011;31265;49.680;8.608;2022-12-07T09:14:33;9.43;;;4.03;;
45540;SDS011;31265;49.680;8.608;2022-12-07T09:17:07;11.02;;;4.10;;
45540;SDS011;31265;49.680;8.608;2022-12-07T09:19:38;7.93;;;4.05;;
45540;SDS011;31265;49.680;8.608;2022-12-07T09:22:10;10.10;;;4.82;;
45540;SDS011;31265;49.680;8.608;2022-12-07T09:24:40;10.63;;;4.28;;
45540;SDS011;31265;49.680;8.608;2022-12-07T09:27:10;8.40;;;4.32;;
45540;SDS011;31265;49.680;8.608;2022-12-07T09:29:39;10.32;;;4.78;;
45540;SDS011;31265;49.680;8.608;2022-12-07T09:32:11;7.00;;;3.80;;
45540;SDS011;31265;49.680;8.608;2022-12-07T09:34:40;7.80;;;4.17;;
45540;SDS011;31265;49.680;8.608;2022-12-07T09:37:08;7.90;;;3.63;;
45540;SDS011;31265;49.680;8.608;2022-12-07T09:39:37;8.68;;;3.83;;
45540;SDS011;31265;49.680;8.608;2022-12-07T09:42:21;10.57;;;4.20;;
45540;SDS011;31265;49.680;8.608;2022-12-07T09:47:24;9.07;;;4.18;;
45540;SDS011;31265;49.680;8.608;2022-12-07T09:49:58;8.65;;;4.25;;
45540;SDS011;31265;49.680;8.608;2022-12-07T09:52:31;7.50;;;3.78;;
45540;SDS011;31265;49.680;8.608;2022-12-07T09:55:10;7.28;;;3.58;;
45540;SDS011;31265;49.680;8.608;2022-12-07T09:57:40;11.35;;;5.28;;
45540;SDS011;31265;49.680;8.608;2022-12-07T10:02:43;8.35;;;3.45;;
45540;SDS011;31265;49.680;8.608;2022-12-07T10:05:15;10.20;;;4.53;;
45540;SDS011;31265;49.680;8.608;2022-12-07T10:07:50;9.30;;;3.83;;
45540;SDS011;31265;49.680;8.608;2022-12-07T10:10:22;8.23;;;3.77;;
45540;SDS011;31265;49.680;8.608;2022-12-07T10:12:54;9.60;;;3.92;;
45540;SDS011;31265;49.680;8.608;2022-12-07T10:15:43;8.18;;;3.70;;
45540;SDS011;31265;49.680;8.608;2022-12-07T10:24:01;16.50;;;4.85;;
45540;SDS011;31265;49.680;8.608;2022-12-07T10:26:33;7.40;;;3.75;;
45540;SDS011;31265;49.680;8.608;2022-12-07T10:29:12;6.07;;;3.03;;
45540;SDS011;31265;49.680;8.608;2022-12-07T10:31:44;7.32;;;4.03;;
45540;SDS011;31265;49.680;8.608;2022-12-07T10:34:20;7.28;;;3.65;;
45540;SDS011;31265;49.680;8.608;2022-12-07T10:36:51;7.82;;;3.92;;
45540;SDS011;31265;49.680;8.608;2022-12-07T10:39:22;9.70;;;4.55;;
45540;SDS011;31265;49.680;8.608;2022-12-07T10:41:55;10.90;;;4.22;;
45540;SDS011;31265;49.680;8.608;2022-12-07T10:44:25;9.50;;;4.40;;
45540;SDS011;31265;49.680;8.608;2022-12-07T10:50:08;8.50;;;4.10;;
45540;SDS011;31265;49.680;8.608;2022-12-07T10:55:56;8.98;;;4.63;;
45540;SDS011;31265;49.680;8.608;2022-12-07T10:58:48;7.53;;;3.58;;
45540;SDS011;31265;49.680;8.608;2022-12-07T11:01:26;12.07;;;4.63;;
45540;SDS011;31265;49.680;8.608;2022-12-07T11:04:04;10.60;;;4.00;;
45540;SDS011;31265;49.680;8.608;2022-12-07T11:06:46;12.43;;;4.65;;
45540;SDS011;31265;49.680;8.608;2022-12-07T11:12:39;8.32;;;4.25;;
45540;SDS011;31265;49.680;8.608;2022-12-07T11:15:33;7.60;;;3.58;;
45540;SDS011;31265;49.680;8.608;2022-12-07T11:18:11;9.23;;;4.00;;
45540;SDS011;31265;49.680;8.608;2022-12-07T11:20:58;5.32;;;3.45;;
45540;SDS011;31265;49.680;8.608;2022-12-07T11:23:39;7.53;;;3.28;;
45540;SDS011;31265;49.680;8.608;2022-12-07T11:26:15;10.35;;;4.78;;
45540;SDS011;31265;49.680;8.608;2022-12-07T11:29:02;8.25;;;3.97;;
45540;SDS011;31265;49.680;8.608;2022-12-07T11:31:51;12.27;;;5.03;;
45540;SDS011;31265;49.680;8.608;2022-12-07T11:34:36;9.25;;;4.70;;
45540;SDS011;31265;49.680;8.608;2022-12-07T11:37:10;7.28;;;3.90;;
45540;SDS011;31265;49.680;8.608;2022-12-07T11:39:43;8.60;;;4.38;;
45540;SDS011;31265;49.680;8.608;2022-12-07T11:42:19;7.40;;;3.28;;
45540;SDS011;31265;49.680;8.608;2022-12-07T11:44:52;7.53;;;3.33;;
45540;SDS011;31265;49.680;8.608;2022-12-07T11:47:30;7.82;;;3.92;;
45540;SDS011;31265;49.680;8.608;2022-12-07T11:50:11;11.65;;;4.32;;
45540;SDS011;31265;49.680;8.608;2022-12-07T11:52:53;13.80;;;5.97;;
45540;SDS011;31265;49.680;8.608;2022-12-07T11:55:26;8.25;;;4.25;;
45540;SDS011;31265;49.680;8.608;2022-12-07T11:58:02;8.10;;;3.78;;
45540;SDS011;31265;49.680;8.608;2022-12-07T12:00:42;8.18;;;3.78;;
45540;SDS011;31265;49.680;8.608;2022-12-07T12:03:15;9.82;;;3.75;;
45540;SDS011;31265;49.680;8.608;2022-12-07T12:05:53;7.97;;;3.17;;
45540;SDS011;31265;49.680;8.608;2022-12-07T12:08:22;8.32;;;4.13;;
45540;SDS011;31265;49.680;8.608;2022-12-07T12:11:21;10.65;;;4.95;;
45540;SDS011;31265;49.680;8.608;2022-12-07T12:14:08;7.72;;;3.88;;
45540;SDS011;31265;49.680;8.608;2022-12-07T12:17:11;9.80;;;4.78;;
45540;SDS011;31265;49.680;8.608;2022-12-07T12:20:15;8.10;;;3.72;;
45540;SDS011;31265;49.680;8.608;2022-12-07T12:22:50;9.48;;;4.38;;
45540;SDS011;31265;49.680;8.608;2022-12-07T12:25:23;9.45;;;4.07;;
45540;SDS011;31265;49.680;8.608;2022-12-07T12:27:57;7.30;;;2.50;;
45540;SDS011;31265;49.680;8.608;2022-12-07T12:30:33;10.00;;;3.78;;
45540;SDS011;31265;49.680;8.608;2022-12-07T12:33:05;7.55;;;3.72;;
45540;SDS011;31265;49.680;8.608;2022-12-07T12:35:42;11.07;;;4.18;;
45540;SDS011;31265;49.680;8.608;2022-12-07T12:38:25;13.30;;;4.90;;
45540;SDS011;31265;49.680;8.608;2022-12-07T12:40:57;5.18;;;2.40;;
45540;SDS011;31265;49.680;8.608;2022-12-07T12:43:39;4.28;;;1.70;;
45540;SDS011;31265;49.680;8.608;2022-12-07T12:49:35;1.88;;;0.80;;
45540;SDS011;31265;49.680;8.608;2022-12-07T12:55:24;4.72;;;1.15;;
45540;SDS011;31265;49.680;8.608;2022-12-07T13:07:07;3.25;;;0.88;;
45540;SDS011;31265;49.680;8.608;2022-12-07T13:09:42;2.95;;;1.10;;
45540;SDS011;31265;49.680;8.608;2022-12-07T13:12:17;4.57;;;1.20;;
45540;SDS011;31265;49.680;8.608;2022-12-07T13:14:54;1.23;;;0.82;;
45540;SDS011;31265;49.680;8.608;2022-12-07T13:20:45;5.60;;;1.63;;
45540;SDS011;31265;49.680;8.608;2022-12-07T13:23:26;1.65;;;0.65;;
45540;SDS011;31265;49.680;8.608;2022-12-07T13:26:02;3.85;;;1.30;;
45540;SDS011;31265;49.680;8.608;2022-12-07T13:28:46;2.33;;;0.73;;
45540;SDS011;31265;49.680;8.608;2022-12-07T13:31:20;6.40;;;1.55;;
45540;SDS011;31265;49.680;8.608;2022-12-07T13:34:00;6.00;;;0.90;;
45540;SDS011;31265;49.680;8.608;2022-12-07T13:36:33;2.85;;;0.95;;
45540;SDS011;31265;49.680;8.608;2022-12-07T13:39:11;3.85;;;1.10;;
45540;SDS011;31265;49.680;8.608;2022-12-07T13:41:49;3.00;;;0.82;;
45540;SDS011;31265;49.680;8.608;2022-12-07T13:44:21;3.78;;;1.17;;
45540;SDS011;31265;49.680;8.608;2022-12-07T13:46:52;2.10;;;1.20;;
45540;SDS011;31265;49.680;8.608;2022-12-07T13:49:28;2.97;;;1.17;;
45540;SDS011;31265;49.680;8.608;2022-12-07T13:52:08;4.85;;;1.90;;
45540;SDS011;31265;49.680;8.608;2022-12-07T13:54:43;5.15;;;2.45;;
45540;SDS011;31265;49.680;8.608;2022-12-07T13:57:13;5.90;;;1.70;;
45540;SDS011;31265;49.680;8.608;2022-12-07T13:59:48;2.85;;;1.30;;
45540;SDS011;31265;49.680;8.608;2022-12-07T14:05:05;6.65;;;1.73;;
45540;SDS011;31265;49.680;8.608;2022-12-07T14:07:48;4.43;;;1.42;;
45540;SDS011;31265;49.680;8.608;2022-12-07T14:10:25;3.60;;;1.80;;
45540;SDS011;31265;49.680;8.608;2022-12-07T14:12:56;3.45;;;1.20;;
45540;SDS011;31265;49.680;8.608;2022-12-07T14:15:31;6.68;;;2.03;;
45540;SDS011;31265;49.680;8.608;2022-12-07T14:18:02;4.13;;;1.95;;
45540;SDS011;31265;49.680;8.608;2022-12-07T14:20:34;4.38;;;1.88;;
45540;SDS011;31265;49.680;8.608;2022-12-07T14:23:05;4.72;;;1.90;;
45540;SDS011;31265;49.680;8.608;2022-12-07T14:25:50;4.55;;;1.70;;
45540;SDS011;31265;49.680;8.608;2022-12-07T14:28:26;4.68;;;1.80;;
45540;SDS011;31265;49.680;8.608;2022-12-07T14:31:02;3.42;;;1.60;;
45540;SDS011;31265;49.680;8.608;2022-12-07T14:33:37;2.58;;;1.27;;
45540;SDS011;31265;49.680;8.608;2022-12-07T14:36:12;7.65;;;1.23;;
45540;SDS011;31265;49.680;8.608;2022-12-07T14:38:48;8.07;;;2.10;;
45540;SDS011;31265;49.680;8.608;2022-12-07T14:41:17;3.30;;;1.63;;
45540;SDS011;31265;49.680;8.608;2022-12-07T14:44:09;4.20;;;1.75;;
45540;SDS011;31265;49.680;8.608;2022-12-07T14:46:56;4.43;;;1.88;;
45540;SDS011;31265;49.680;8.608;2022-12-07T14:49:46;4.68;;;1.55;;
45540;SDS011;31265;49.680;8.608;2022-12-07T14:52:20;5.38;;;2.03;;
45540;SDS011;31265;49.680;8.608;2022-12-07T14:55:16;3.72;;;1.52;;
45540;SDS011;31265;49.680;8.608;2022-12-07T14:57:53;4.90;;;1.75;;
45540;SDS011;31265;49.680;8.608;2022-12-07T15:00:29;9.00;;;1.90;;
45540;SDS011;31265;49.680;8.608;2022-12-07T15:03:02;5.30;;;2.38;;
45540;SDS011;31265;49.680;8.608;2022-12-07T15:05:33;3.67;;;1.60;;
45540;SDS011;31265;49.680;8.608;2022-12-07T15:08:02;6.75;;;1.67;;
45540;SDS011;31265;49.680;8.608;2022-12-07T15:10:34;6.55;;;2.05;;
45540;SDS011;31265;49.680;8.608;2022-12-07T15:13:13;7.60;;;2.22;;
45540;SDS011;31265;49.680;8.608;2022-12-07T15:16:04;2.85;;;1.42;;
45540;SDS011;31265;49.680;8.608;2022-12-07T15:18:42;5.38;;;1.65;;
45540;SDS011;31265;49.680;8.608;2022-12-07T15:21:32;4.03;;;1.42;;
45540;SDS011;31265;49.680;8.608;2022-12-07T15:24:00;4.07;;;2.08;;
45540;SDS011;31265;49.680;8.608;2022-12-07T15:26:28;3.30;;;1.33;;
45540;SDS011;31265;49.680;8.608;2022-12-07T15:28:56;8.15;;;2.10;;
45540;SDS011;31265;49.680;8.608;2022-12-07T15:31:25;3.90;;;1.27;;
45540;SDS011;31265;49.680;8.608;2022-12-07T15:34:18;4.10;;;1.50;;
45540;SDS011;31265;49.680;8.608;2022-12-07T15:36:46;2.67;;;1.15;;
45540;SDS011;31265;49.680;8.608;2022-12-07T15:39:14;3.70;;;1.75;;
45540;SDS011;31265;49.680;8.608;2022-12-07T15:41:43;8.00;;;1.35;;
45540;SDS011;31265;49.680;8.608;2022-12-07T15:44:12;3.08;;;1.45;;
45540;SDS011;31265;49.680;8.608;2022-12-07T15:46:58;6.32;;;1.92;;
45540;SDS011;31265;49.680;8.608;2022-12-07T15:49:29;6.97;;;2.90;;
45540;SDS011;31265;49.680;8.608;2022-12-07T15:52:00;6.80;;;2.22;;
45540;SDS011;31265;49.680;8.608;2022-12-07T15:54:29;8.63;;;2.67;;
45540;SDS011;31265;49.680;8.608;2022-12-07T15:56:58;5.15;;;1.88;;
45540;SDS011;31265;49.680;8.608;2022-12-07T15:59:28;2.95;;;1.33;;
45540;SDS011;31265;49.680;8.608;2022-12-07T16:01:57;6.57;;;1.73;;
45540;SDS011;31265;49.680;8.608;2022-12-07T16:04:26;6.22;;;1.75;;
45540;SDS011;31265;49.680;8.608;2022-12-07T16:06:57;3.95;;;1.70;;
45540;SDS011;31265;49.680;8.608;2022-12-07T16:09:26;7.53;;;1.70;;
45540;SDS011;31265;49.680;8.608;2022-12-07T16:11:54;4.68;;;1.90;;
45540;SDS011;31265;49.680;8.608;2022-12-07T16:14:23;9.43;;;2.65;;
45540;SDS011;31265;49.680;8.608;2022-12-07T16:16:51;5.43;;;2.58;;
45540;SDS011;31265;49.680;8.608;2022-12-07T16:19:20;3.80;;;1.52;;
45540;SDS011;31265;49.680;8.608;2022-12-07T16:21:50;3.42;;;1.70;;
45540;SDS011;31265;49.680;8.608;2022-12-07T16:24:19;5.82;;;2.30;;